sensor_id;sensor_type;location;lat;lon;timestamp;pressure;altitude;pressure_sealevel;temperature;humidity
37238;BME280;23129;49.662;8.448;2022-09-17T00:01:39;100362.78;;;10.45;100.00
37238;BME280;23129;49.662;8.448;2022-09-17T00:04:09;100358.41;;;10.45;100.00
37238;BME280;23129;49.662;8.448;2022-09-17T00:06:37;100353.16;;;10.45;100.00
37238;BME280;23129;49.662;8.448;2022-09-17T00:09:07;100356.63;;;10.46;100.00
37238;BME280;23129;49.662;8.448;2022-09-17T00:11:40;100357.47;;;10.46;100.00
37238;BME280;23129;49.662;8.448;2022-09-17T00:14:15;100355.75;;;10.47;100.00
37238;BME280;23129;49.662;8.448;2022-09-17T00:16:46;100353.16;;;10.45;100.00
37238;BME280;23129;49.662;8.448;2022-09-17T00:19:18;100354.94;;;10.43;100.00
37238;BME280;23129;49.662;8.448;2022-09-17T00:21:47;100353.25;;;10.42;100.00
37238;BME280;23129;49.662;8.448;2022-09-17T00:24:19;100346.28;;;10.41;100.00
37238;BME280;23129;49.662;8.448;2022-09-17T00:26:49;100352.41;;;10.40;100.00
37238;BME280;23129;49.662;8.448;2022-09-17T00:29:18;100361.09;;;10.42;100.00
37238;BME280;23129;49.662;8.448;2022-09-17T00:31:47;100354.16;;;10.41;100.00
37238;BME280;23129;49.662;8.448;2022-09-17T00:34:16;100365.53;;;10.40;100.00
37238;BME280;23129;49.662;8.448;2022-09-17T00:36:44;100355.88;;;10.41;100.00
37238;BME280;23129;49.662;8.448;2022-09-17T00:39:12;100359.44;;;10.40;100.00
37238;BME280;23129;49.662;8.448;2022-09-17T00:41:43;100358.56;;;10.39;100.00
37238;BME280;23129;49.662;8.448;2022-09-17T00:44:42;100365.59;;;10.37;100.00
37238;BME280;23129;49.662;8.448;2022-09-17T00:47:21;100352.50;;;10.37;100.00
37238;BME280;23129;49.662;8.448;2022-09-17T00:49:54;100364.75;;;10.37;100.00
37238;BME280;23129;49.662;8.448;2022-09-17T00:52:28;100361.31;;;10.35;100.00
37238;BME280;23129;49.662;8.448;2022-09-17T00:55:06;100357.91;;;10.33;100.00
37238;BME280;23129;49.662;8.448;2022-09-17T00:57:40;100355.31;;;10.31;100.00
37238;BME280;23129;49.662;8.448;2022-09-17T01:00:11;100361.47;;;10.28;100.00
37238;BME280;23129;49.662;8.448;2022-09-17T01:02:42;100358.00;;;10.28;100.00
37238;BME280;23129;49.662;8.448;2022-09-17T01:05:12;100368.50;;;10.28;100.00
37238;BME280;23129;49.662;8.448;2022-09-17T01:08:00;100365.94;;;10.25;100.00
37238;BME280;23129;49.662;8.448;2022-09-17T01:10:56;100366.88;;;10.22;100.00
37238;BME280;23129;49.662;8.448;2022-09-17T01:13:42;100371.34;;;10.19;100.00
37238;BME280;23129;49.662;8.448;2022-09-17T01:16:28;100362.66;;;10.17;100.00
37238;BME280;23129;49.662;8.448;2022-09-17T01:19:25;100372.34;;;10.15;100.00
37238;BME280;23129;49.662;8.448;2022-09-17T01:22:02;100366.25;;;10.13;100.00
37238;BME280;23129;49.662;8.448;2022-09-17T01:24:49;100368.94;;;10.11;100.00
37238;BME280;23129;49.662;8.448;2022-09-17T01:27:57;100372.44;;;10.10;100.00
37238;BME280;23129;49.662;8.448;2022-09-17T01:31:21;100369.88;;;10.09;100.00
37238;BME280;23129;49.662;8.448;2022-09-17T01:33:58;100375.13;;;10.09;100.00
37238;BME280;23129;49.662;8.448;2022-09-17T01:36:43;100376.88;;;10.08;100.00
37238;BME280;23129;49.662;8.448;2022-09-17T01:39:26;100381.31;;;10.06;100.00
37238;BME280;23129;49.662;8.448;2022-09-17T01:42:01;100390.03;;;10.05;100.00
37238;BME280;23129;49.662;8.448;2022-09-17T01:44:36;100373.56;;;10.01;100.00
37238;BME280;23129;49.662;8.448;2022-09-17T01:47:13;100379.69;;;10.00;100.00
37238;BME280;23129;49.662;8.448;2022-09-17T01:49:49;100379.72;;;9.99;100.00
37238;BME280;23129;49.662;8.448;2022-09-17T01:52:19;100378.84;;;10.00;100.00
37238;BME280;23129;49.662;8.448;2022-09-17T01:54:52;100387.66;;;9.97;100.00
37238;BME280;23129;49.662;8.448;2022-09-17T01:57:25;100386.00;;;9.93;100.00
37238;BME280;23129;49.662;8.448;2022-09-17T01:59:59;100399.19;;;9.90;100.00
37238;BME280;23129;49.662;8.448;2022-09-17T02:02:43;100401.00;;;9.87;100.00
37238;BME280;23129;49.662;8.448;2022-09-17T02:05:17;100405.47;;;9.83;100.00
37238;BME280;23129;49.662;8.448;2022-09-17T02:07:51;100398.59;;;9.79;100.00
37238;BME280;23129;49.662;8.448;2022-09-17T02:10:22;100400.47;;;9.74;100.00
37238;BME280;23129;49.662;8.448;2022-09-17T02:12:57;100405.78;;;9.71;100.00
37238;BME280;23129;49.662;8.448;2022-09-17T02:15:32;100395.38;;;9.68;100.00
37238;BME280;23129;49.662;8.448;2022-09-17T02:18:07;100402.41;;;9.66;100.00
37238;BME280;23129;49.662;8.448;2022-09-17T02:20:42;100404.22;;;9.64;100.00
37238;BME280;23129;49.662;8.448;2022-09-17T02:23:17;100406.00;;;9.62;100.00
37238;BME280;23129;49.662;8.448;2022-09-17T02:25:51;100408.66;;;9.60;100.00
37238;BME280;23129;49.662;8.448;2022-09-17T02:28:26;100415.63;;;9.61;100.00
37238;BME280;23129;49.662;8.448;2022-09-17T02:31:00;100409.53;;;9.60;100.00
37238;BME280;23129;49.662;8.448;2022-09-17T02:33:32;100404.38;;;9.57;100.00
37238;BME280;23129;49.662;8.448;2022-09-17T02:36:03;100402.63;;;9.56;100.00
37238;BME280;23129;49.662;8.448;2022-09-17T02:38:31;100406.16;;;9.55;100.00
37238;BME280;23129;49.662;8.448;2022-09-17T02:41:07;100398.38;;;9.52;100.00
37238;BME280;23129;49.662;8.448;2022-09-17T02:43:49;100396.63;;;9.53;100.00
37238;BME280;23129;49.662;8.448;2022-09-17T02:46:45;100390.47;;;9.55;100.00
37238;BME280;23129;49.662;8.448;2022-09-17T02:49:42;100388.59;;;9.60;100.00
37238;BME280;23129;49.662;8.448;2022-09-17T02:52:26;100388.44;;;9.67;100.00
37238;BME280;23129;49.662;8.448;2022-09-17T02:55:06;100391.78;;;9.72;100.00
37238;BME280;23129;49.662;8.448;2022-09-17T02:57:45;100395.97;;;9.79;100.00
37238;BME280;23129;49.662;8.448;2022-09-17T03:00:17;100401.00;;;9.87;100.00
37238;BME280;23129;49.662;8.448;2022-09-17T03:02:49;100393.03;;;9.91;100.00
37238;BME280;23129;49.662;8.448;2022-09-17T03:05:23;100389.34;;;9.98;100.00
37238;BME280;23129;49.662;8.448;2022-09-17T03:07:54;100385.78;;;10.02;100.00
37238;BME280;23129;49.662;8.448;2022-09-17T03:10:23;100386.56;;;10.04;100.00
37238;BME280;23129;49.662;8.448;2022-09-17T03:12:54;100385.59;;;10.09;100.00
37238;BME280;23129;49.662;8.448;2022-09-17T03:15:22;100382.06;;;10.11;100.00
37238;BME280;23129;49.662;8.448;2022-09-17T03:17:50;100388.94;;;10.14;100.00
37238;BME280;23129;49.662;8.448;2022-09-17T03:20:21;100387.16;;;10.16;100.00
37238;BME280;23129;49.662;8.448;2022-09-17T03:22:51;100390.50;;;10.21;100.00
37238;BME280;23129;49.662;8.448;2022-09-17T03:25:19;100389.50;;;10.25;100.00
37238;BME280;23129;49.662;8.448;2022-09-17T03:27:48;100387.69;;;10.28;100.00
37238;BME280;23129;49.662;8.448;2022-09-17T03:30:17;100388.50;;;10.32;100.00
37238;BME280;23129;49.662;8.448;2022-09-17T03:32:45;100383.16;;;10.35;100.00
37238;BME280;23129;49.662;8.448;2022-09-17T03:35:14;100389.13;;;10.40;100.00
37238;BME280;23129;49.662;8.448;2022-09-17T03:37:43;100377.75;;;10.41;100.00
37238;BME280;23129;49.662;8.448;2022-09-17T03:40:13;100389.94;;;10.42;100.00
37238;BME280;23129;49.662;8.448;2022-09-17T03:42:42;100396.03;;;10.43;100.00
37238;BME280;23129;49.662;8.448;2022-09-17T03:45:11;100396.91;;;10.43;100.00
37238;BME280;23129;49.662;8.448;2022-09-17T03:47:39;100396.91;;;10.43;100.00
37238;BME280;23129;49.662;8.448;2022-09-17T03:50:08;100393.41;;;10.44;100.00
37238;BME280;23129;49.662;8.448;2022-09-17T03:52:37;100399.50;;;10.45;100.00
37238;BME280;23129;49.662;8.448;2022-09-17T03:55:07;100400.34;;;10.45;100.00
37238;BME280;23129;49.662;8.448;2022-09-17T03:57:35;100402.06;;;10.46;100.00
37238;BME280;23129;49.662;8.448;2022-09-17T04:00:05;100401.19;;;10.47;100.00
37238;BME280;23129;49.662;8.448;2022-09-17T04:02:40;100412.47;;;10.49;100.00
37238;BME280;23129;49.662;8.448;2022-09-17T04:05:09;100410.66;;;10.51;100.00
37238;BME280;23129;49.662;8.448;2022-09-17T04:07:38;100416.72;;;10.54;100.00
37238;BME280;23129;49.662;8.448;2022-09-17T04:10:09;100412.28;;;10.56;100.00
37238;BME280;23129;49.662;8.448;2022-09-17T04:12:38;100420.97;;;10.58;100.00
37238;BME280;23129;49.662;8.448;2022-09-17T04:15:07;100422.69;;;10.59;100.00
37238;BME280;23129;49.662;8.448;2022-09-17T04:17:35;100410.41;;;10.61;100.00
37238;BME280;23129;49.662;8.448;2022-09-17T04:20:05;100403.34;;;10.63;100.00
37238;BME280;23129;49.662;8.448;2022-09-17T04:22:33;100412.03;;;10.65;100.00
37238;BME280;23129;49.662;8.448;2022-09-17T04:25:02;100415.47;;;10.67;100.00
37238;BME280;23129;49.662;8.448;2022-09-17T04:27:32;100418.91;;;10.69;100.00
37238;BME280;23129;49.662;8.448;2022-09-17T04:30:00;100420.63;;;10.70;100.00
37238;BME280;23129;49.662;8.448;2022-09-17T04:32:28;100415.28;;;10.73;100.00
37238;BME280;23129;49.662;8.448;2022-09-17T04:34:57;100411.78;;;10.74;100.00
37238;BME280;23129;49.662;8.448;2022-09-17T04:37:26;100411.78;;;10.74;100.00
37238;BME280;23129;49.662;8.448;2022-09-17T04:39:54;100426.53;;;10.77;100.00
37238;BME280;23129;49.662;8.448;2022-09-17T04:42:23;100419.56;;;10.77;100.00
37238;BME280;23129;49.662;8.448;2022-09-17T04:44:52;100423.91;;;10.78;100.00
37238;BME280;23129;49.662;8.448;2022-09-17T04:47:21;100425.56;;;10.81;100.00
37238;BME280;23129;49.662;8.448;2022-09-17T04:49:49;100426.44;;;10.81;100.00
37238;BME280;23129;49.662;8.448;2022-09-17T04:52:18;100434.31;;;10.81;100.00
37238;BME280;23129;49.662;8.448;2022-09-17T04:54:46;100439.56;;;10.81;100.00
37238;BME280;23129;49.662;8.448;2022-09-17T04:57:14;100434.41;;;10.78;100.00
37238;BME280;23129;49.662;8.448;2022-09-17T04:59:42;100439.91;;;10.69;100.00
37238;BME280;23129;49.662;8.448;2022-09-17T05:02:12;100440.16;;;10.60;100.00
37238;BME280;23129;49.662;8.448;2022-09-17T05:04:40;100443.00;;;10.52;100.00
37238;BME280;23129;49.662;8.448;2022-09-17T05:07:09;100440.59;;;10.44;100.00
37238;BME280;23129;49.662;8.448;2022-09-17T05:09:40;100439.84;;;10.39;100.00
37238;BME280;23129;49.662;8.448;2022-09-17T05:12:08;100441.69;;;10.36;100.00
37238;BME280;23129;49.662;8.448;2022-09-17T05:14:37;100445.28;;;10.32;100.00
37238;BME280;23129;49.662;8.448;2022-09-17T05:17:05;100444.50;;;10.28;100.00
37238;BME280;23129;49.662;8.448;2022-09-17T05:19:35;100438.47;;;10.24;100.00
37238;BME280;23129;49.662;8.448;2022-09-17T05:22:04;100439.38;;;10.23;100.00
37238;BME280;23129;49.662;8.448;2022-09-17T05:24:32;100441.13;;;10.23;100.00
37238;BME280;23129;49.662;8.448;2022-09-17T05:27:03;100440.22;;;10.24;100.00
37238;BME280;23129;49.662;8.448;2022-09-17T05:29:32;100455.91;;;10.25;100.00
37238;BME280;23129;49.662;8.448;2022-09-17T05:32:00;100442.81;;;10.27;100.00
37238;BME280;23129;49.662;8.448;2022-09-17T05:34:29;100446.16;;;10.32;100.00
37238;BME280;23129;49.662;8.448;2022-09-17T05:36:59;100453.13;;;10.33;100.00
37238;BME280;23129;49.662;8.448;2022-09-17T05:39:27;100449.59;;;10.34;100.00
37238;BME280;23129;49.662;8.448;2022-09-17T05:41:56;100449.50;;;10.37;100.00
37238;BME280;23129;49.662;8.448;2022-09-17T05:44:24;100450.28;;;10.41;100.00
37238;BME280;23129;49.662;8.448;2022-09-17T05:46:52;100456.31;;;10.44;100.00
37238;BME280;23129;49.662;8.448;2022-09-17T05:49:21;100464.91;;;10.49;100.00
37238;BME280;23129;49.662;8.448;2022-09-17T05:51:50;100471.81;;;10.54;100.00
37238;BME280;23129;49.662;8.448;2022-09-17T05:54:19;100480.38;;;10.59;100.00
37238;BME280;23129;49.662;8.448;2022-09-17T05:56:48;100482.03;;;10.63;100.00
37238;BME280;23129;49.662;8.448;2022-09-17T05:59:20;100489.78;;;10.67;100.00
37238;BME280;23129;49.662;8.448;2022-09-17T06:01:48;100490.56;;;10.71;100.00
37238;BME280;23129;49.662;8.448;2022-09-17T06:04:17;100493.91;;;10.76;100.00
37238;BME280;23129;49.662;8.448;2022-09-17T06:06:45;100490.31;;;10.80;100.00
37238;BME280;23129;49.662;8.448;2022-09-17T06:09:14;100488.41;;;10.85;100.00
37238;BME280;23129;49.662;8.448;2022-09-17T06:11:44;100491.75;;;10.90;100.00
37238;BME280;23129;49.662;8.448;2022-09-17T06:14:12;100490.75;;;10.94;100.00
37238;BME280;23129;49.662;8.448;2022-09-17T06:16:41;100482.00;;;10.95;100.00
37238;BME280;23129;49.662;8.448;2022-09-17T06:19:10;100480.16;;;10.97;100.00
37238;BME280;23129;49.662;8.448;2022-09-17T06:21:38;100485.38;;;10.99;100.00
37238;BME280;23129;49.662;8.448;2022-09-17T06:24:08;100487.06;;;11.02;100.00
37238;BME280;23129;49.662;8.448;2022-09-17T06:26:36;100493.03;;;11.07;100.00
37238;BME280;23129;49.662;8.448;2022-09-17T06:29:06;100499.94;;;11.11;100.00
37238;BME280;23129;49.662;8.448;2022-09-17T06:31:34;100497.25;;;11.12;100.00
37238;BME280;23129;49.662;8.448;2022-09-17T06:34:03;100495.41;;;11.16;100.00
37238;BME280;23129;49.662;8.448;2022-09-17T06:36:32;100500.47;;;11.22;100.00
37238;BME280;23129;49.662;8.448;2022-09-17T06:39:00;100496.00;;;11.26;100.00
37238;BME280;23129;49.662;8.448;2022-09-17T06:41:29;100515.22;;;11.26;100.00
37238;BME280;23129;49.662;8.448;2022-09-17T06:43:57;100507.31;;;11.28;100.00
37238;BME280;23129;49.662;8.448;2022-09-17T06:46:27;100505.53;;;11.28;100.00
37238;BME280;23129;49.662;8.448;2022-09-17T06:48:55;100507.22;;;11.31;100.00
37238;BME280;23129;49.662;8.448;2022-09-17T06:51:24;100508.00;;;11.34;100.00
37238;BME280;23129;49.662;8.448;2022-09-17T06:53:52;100505.97;;;11.42;100.00
37238;BME280;23129;49.662;8.448;2022-09-17T06:56:20;100500.63;;;11.46;100.00
37238;BME280;23129;49.662;8.448;2022-09-17T06:58:48;100493.38;;;11.54;100.00
37238;BME280;23129;49.662;8.448;2022-09-17T07:01:17;100496.03;;;11.80;100.00
37238;BME280;23129;49.662;8.448;2022-09-17T07:03:50;100491.84;;;12.03;100.00
37238;BME280;23129;49.662;8.448;2022-09-17T07:06:19;100498.59;;;12.37;100.00
37238;BME280;23129;49.662;8.448;2022-09-17T07:08:47;100486.75;;;12.73;100.00
37238;BME280;23129;49.662;8.448;2022-09-17T07:11:16;100490.34;;;12.96;100.00
37238;BME280;23129;49.662;8.448;2022-09-17T07:13:44;100487.59;;;13.22;100.00
37238;BME280;23129;49.662;8.448;2022-09-17T07:16:12;100484.72;;;13.52;100.00
37238;BME280;23129;49.662;8.448;2022-09-17T07:18:41;100484.34;;;13.83;100.00
37238;BME280;23129;49.662;8.448;2022-09-17T07:21:10;100496.09;;;14.19;100.00
37238;BME280;23129;49.662;8.448;2022-09-17T07:23:41;100492.56;;;14.38;100.00
37238;BME280;23129;49.662;8.448;2022-09-17T07:26:14;100499.94;;;14.52;100.00
37238;BME280;23129;49.662;8.448;2022-09-17T07:28:42;100495.91;;;14.84;100.00
37238;BME280;23129;49.662;8.448;2022-09-17T07:31:12;100497.41;;;14.90;100.00
37238;BME280;23129;49.662;8.448;2022-09-17T07:33:43;100495.19;;;15.19;100.00
37238;BME280;23129;49.662;8.448;2022-09-17T07:36:14;100494.50;;;15.53;100.00
37238;BME280;23129;49.662;8.448;2022-09-17T07:38:44;100496.78;;;15.80;100.00
37238;BME280;23129;49.662;8.448;2022-09-17T07:41:14;100496.56;;;16.02;100.00
37238;BME280;23129;49.662;8.448;2022-09-17T07:43:44;100495.63;;;16.03;100.00
37238;BME280;23129;49.662;8.448;2022-09-17T07:46:15;100493.69;;;15.89;100.00
37238;BME280;23129;49.662;8.448;2022-09-17T07:48:43;100501.63;;;15.51;100.00
37238;BME280;23129;49.662;8.448;2022-09-17T07:51:16;100506.78;;;15.16;100.00
37238;BME280;23129;49.662;8.448;2022-09-17T07:53:45;100513.88;;;14.95;100.00
37238;BME280;23129;49.662;8.448;2022-09-17T07:56:13;100497.88;;;14.79;100.00
37238;BME280;23129;49.662;8.448;2022-09-17T07:58:42;100505.88;;;14.57;100.00
37238;BME280;23129;49.662;8.448;2022-09-17T08:01:12;100510.16;;;14.39;100.00
37238;BME280;23129;49.662;8.448;2022-09-17T08:03:42;100503.22;;;14.37;100.00
37238;BME280;23129;49.662;8.448;2022-09-17T08:06:18;100503.69;;;15.06;100.00
37238;BME280;23129;49.662;8.448;2022-09-17T08:08:47;100492.69;;;16.09;100.00
37238;BME280;23129;49.662;8.448;2022-09-17T08:11:19;100493.06;;;17.04;100.00
37238;BME280;23129;49.662;8.448;2022-09-17T08:14:10;100494.00;;;17.84;100.00
37238;BME280;23129;49.662;8.448;2022-09-17T08:16:39;100494.22;;;18.55;100.00
37238;BME280;23129;49.662;8.448;2022-09-17T08:19:08;100482.84;;;19.10;100.00
37238;BME280;23129;49.662;8.448;2022-09-17T08:21:38;100493.47;;;19.39;100.00
37238;BME280;23129;49.662;8.448;2022-09-17T08:24:06;100490.03;;;19.66;100.00
37238;BME280;23129;49.662;8.448;2022-09-17T08:26:35;100488.84;;;19.55;100.00
37238;BME280;23129;49.662;8.448;2022-09-17T08:29:05;100493.69;;;19.63;100.00
37238;BME280;23129;49.662;8.448;2022-09-17T08:31:33;100491.34;;;19.44;100.00
37238;BME280;23129;49.662;8.448;2022-09-17T08:34:06;100488.19;;;18.82;99.13
37238;BME280;23129;49.662;8.448;2022-09-17T08:36:34;100506.97;;;18.04;97.79
37238;BME280;23129;49.662;8.448;2022-09-17T08:39:04;100499.84;;;17.25;96.33
37238;BME280;23129;49.662;8.448;2022-09-17T08:41:51;100510.06;;;16.49;98.69
37238;BME280;23129;49.662;8.448;2022-09-17T08:44:26;100514.44;;;15.96;100.00
37238;BME280;23129;49.662;8.448;2022-09-17T08:46:59;100513.81;;;15.74;100.00
37238;BME280;23129;49.662;8.448;2022-09-17T08:49:34;100513.56;;;16.50;100.00
37238;BME280;23129;49.662;8.448;2022-09-17T08:52:48;100506.13;;;17.72;100.00
37238;BME280;23129;49.662;8.448;2022-09-17T08:55:31;100509.47;;;18.21;100.00
37238;BME280;23129;49.662;8.448;2022-09-17T09:01:26;100502.28;;;18.23;100.00
37238;BME280;23129;49.662;8.448;2022-09-17T09:07:01;100526.13;;;18.09;100.00
37238;BME280;23129;49.662;8.448;2022-09-17T09:09:36;100506.41;;;18.74;100.00
37238;BME280;23129;49.662;8.448;2022-09-17T09:12:15;100508.84;;;19.48;100.00
37238;BME280;23129;49.662;8.448;2022-09-17T09:14:51;100503.78;;;19.99;100.00
37238;BME280;23129;49.662;8.448;2022-09-17T09:17:25;100493.84;;;20.28;99.37
37238;BME280;23129;49.662;8.448;2022-09-17T09:19:55;100501.16;;;20.25;97.65
37238;BME280;23129;49.662;8.448;2022-09-17T09:22:43;100500.88;;;20.42;100.00
37238;BME280;23129;49.662;8.448;2022-09-17T09:25:22;100495.06;;;20.75;99.09
37238;BME280;23129;49.662;8.448;2022-09-17T09:28:06;100507.13;;;21.07;98.29
37238;BME280;23129;49.662;8.448;2022-09-17T09:30:57;100499.66;;;20.86;97.28
37238;BME280;23129;49.662;8.448;2022-09-17T09:33:31;100510.94;;;20.12;95.64
37238;BME280;23129;49.662;8.448;2022-09-17T09:36:01;100510.09;;;19.43;94.35
37238;BME280;23129;49.662;8.448;2022-09-17T09:38:32;100501.25;;;18.70;95.44
37238;BME280;23129;49.662;8.448;2022-09-17T09:41:07;100509.66;;;18.18;97.61
37238;BME280;23129;49.662;8.448;2022-09-17T09:43:44;100508.50;;;17.76;99.25
37238;BME280;23129;49.662;8.448;2022-09-17T09:47:11;100515.34;;;17.49;100.00
37238;BME280;23129;49.662;8.448;2022-09-17T09:50:01;100515.00;;;17.55;100.00
37238;BME280;23129;49.662;8.448;2022-09-17T09:52:48;100519.09;;;18.08;100.00
37238;BME280;23129;49.662;8.448;2022-09-17T09:55:37;100502.59;;;18.78;100.00
37238;BME280;23129;49.662;8.448;2022-09-17T09:58:30;100511.44;;;19.07;100.00
37238;BME280;23129;49.662;8.448;2022-09-17T10:01:01;100498.59;;;18.70;98.62
37238;BME280;23129;49.662;8.448;2022-09-17T10:03:39;100513.56;;;18.27;97.43
37238;BME280;23129;49.662;8.448;2022-09-17T10:06:09;100503.81;;;18.28;98.59
37238;BME280;23129;49.662;8.448;2022-09-17T10:08:40;100507.19;;;18.76;99.38
37238;BME280;23129;49.662;8.448;2022-09-17T10:11:20;100504.91;;;19.12;98.97
37238;BME280;23129;49.662;8.448;2022-09-17T10:13:48;100504.31;;;19.36;97.29
37238;BME280;23129;49.662;8.448;2022-09-17T10:16:21;100496.28;;;19.65;97.13
37238;BME280;23129;49.662;8.448;2022-09-17T10:19:12;100488.63;;;20.00;99.06
37238;BME280;23129;49.662;8.448;2022-09-17T10:21:42;100496.69;;;19.86;93.82
37238;BME280;23129;49.662;8.448;2022-09-17T10:24:21;100483.16;;;19.47;93.83
37238;BME280;23129;49.662;8.448;2022-09-17T10:26:51;100497.03;;;18.97;91.76
37238;BME280;23129;49.662;8.448;2022-09-17T10:29:20;100500.19;;;18.59;94.03
37238;BME280;23129;49.662;8.448;2022-09-17T10:31:51;100506.13;;;18.48;96.33
37238;BME280;23129;49.662;8.448;2022-09-17T10:34:21;100506.47;;;18.28;94.83
37238;BME280;23129;49.662;8.448;2022-09-17T10:36:50;100502.03;;;17.98;94.05
37238;BME280;23129;49.662;8.448;2022-09-17T10:39:40;100503.31;;;17.59;94.75
37238;BME280;23129;49.662;8.448;2022-09-17T10:42:14;100503.72;;;17.36;96.32
37238;BME280;23129;49.662;8.448;2022-09-17T10:44:51;100516.88;;;17.21;98.77
37238;BME280;23129;49.662;8.448;2022-09-17T10:47:24;100520.66;;;17.17;99.45
37238;BME280;23129;49.662;8.448;2022-09-17T10:49:57;100521.72;;;16.97;99.21
37238;BME280;23129;49.662;8.448;2022-09-17T10:52:31;100523.81;;;16.73;99.72
37238;BME280;23129;49.662;8.448;2022-09-17T10:55:17;100528.34;;;16.54;100.00
37238;BME280;23129;49.662;8.448;2022-09-17T10:58:03;100523.50;;;16.44;100.00
37238;BME280;23129;49.662;8.448;2022-09-17T11:00:43;100527.00;;;16.45;100.00
37238;BME280;23129;49.662;8.448;2022-09-17T11:03:52;100523.31;;;16.49;100.00
37238;BME280;23129;49.662;8.448;2022-09-17T11:07:02;100523.34;;;16.65;100.00
37238;BME280;23129;49.662;8.448;2022-09-17T11:09:45;100515.09;;;16.88;100.00
37238;BME280;23129;49.662;8.448;2022-09-17T11:12:38;100519.94;;;17.14;100.00
37238;BME280;23129;49.662;8.448;2022-09-17T11:15:27;100517.91;;;17.34;100.00
37238;BME280;23129;49.662;8.448;2022-09-17T11:18:16;100506.63;;;17.63;100.00
37238;BME280;23129;49.662;8.448;2022-09-17T11:21:32;100506.91;;;17.90;100.00
37238;BME280;23129;49.662;8.448;2022-09-17T11:27:32;100490.16;;;18.19;100.00
37238;BME280;23129;49.662;8.448;2022-09-17T11:30:12;100492.44;;;18.25;100.00
37238;BME280;23129;49.662;8.448;2022-09-17T11:33:07;100491.41;;;18.28;100.00
37238;BME280;23129;49.662;8.448;2022-09-17T11:35:46;100489.78;;;18.25;98.69
37238;BME280;23129;49.662;8.448;2022-09-17T11:38:23;100488.47;;;18.33;98.09
37238;BME280;23129;49.662;8.448;2022-09-17T11:41:01;100492.28;;;18.43;96.27
37238;BME280;23129;49.662;8.448;2022-09-17T11:43:33;100468.56;;;18.54;96.42
37238;BME280;23129;49.662;8.448;2022-09-17T11:46:07;100480.56;;;18.61;95.66
37238;BME280;23129;49.662;8.448;2022-09-17T11:48:44;100475.63;;;18.55;93.83
37238;BME280;23129;49.662;8.448;2022-09-17T11:51:26;100471.03;;;18.43;93.71
37238;BME280;23129;49.662;8.448;2022-09-17T11:54:02;100482.69;;;18.40;92.95
37238;BME280;23129;49.662;8.448;2022-09-17T11:56:39;100480.50;;;18.33;92.38
37238;BME280;23129;49.662;8.448;2022-09-17T11:59:15;100479.38;;;18.37;92.32
37238;BME280;23129;49.662;8.448;2022-09-17T12:01:51;100473.31;;;18.63;91.99
37238;BME280;23129;49.662;8.448;2022-09-17T12:04:34;100469.22;;;18.74;90.43
37238;BME280;23129;49.662;8.448;2022-09-17T12:07:18;100468.34;;;18.73;91.53
37238;BME280;23129;49.662;8.448;2022-09-17T12:09:55;100469.97;;;18.76;89.68
37238;BME280;23129;49.662;8.448;2022-09-17T12:12:25;100463.69;;;18.77;88.78
37238;BME280;23129;49.662;8.448;2022-09-17T12:15:19;100457.81;;;19.00;88.97
37238;BME280;23129;49.662;8.448;2022-09-17T12:17:55;100457.47;;;19.33;88.87
37238;BME280;23129;49.662;8.448;2022-09-17T12:20:51;100444.19;;;19.88;89.60
37238;BME280;23129;49.662;8.448;2022-09-17T12:23:33;100442.50;;;20.52;89.31
37238;BME280;23129;49.662;8.448;2022-09-17T12:26:18;100433.28;;;21.07;88.73
37238;BME280;23129;49.662;8.448;2022-09-17T12:28:57;100444.47;;;21.00;87.00
37238;BME280;23129;49.662;8.448;2022-09-17T12:31:39;100438.66;;;20.94;88.18
37238;BME280;23129;49.662;8.448;2022-09-17T12:34:26;100441.44;;;20.80;88.80
37238;BME280;23129;49.662;8.448;2022-09-17T12:37:06;100432.69;;;20.65;86.99
37238;BME280;23129;49.662;8.448;2022-09-17T12:40:14;100434.31;;;20.68;89.81
37238;BME280;23129;49.662;8.448;2022-09-17T12:43:12;100433.25;;;21.20;88.30
37238;BME280;23129;49.662;8.448;2022-09-17T12:46:00;100419.03;;;21.56;86.14
37238;BME280;23129;49.662;8.448;2022-09-17T12:48:51;100430.66;;;21.31;85.99
37238;BME280;23129;49.662;8.448;2022-09-17T12:51:51;100413.91;;;20.92;86.62
37238;BME280;23129;49.662;8.448;2022-09-17T12:54:54;100413.41;;;20.62;83.18
37238;BME280;23129;49.662;8.448;2022-09-17T12:57:37;100413.81;;;20.68;83.17
37238;BME280;23129;49.662;8.448;2022-09-17T13:00:12;100400.91;;;20.75;80.35
37238;BME280;23129;49.662;8.448;2022-09-17T13:02:46;100410.13;;;20.58;80.04
37238;BME280;23129;49.662;8.448;2022-09-17T13:05:42;100400.25;;;20.84;81.60
37238;BME280;23129;49.662;8.448;2022-09-17T13:09:02;100402.69;;;21.37;79.87
37238;BME280;23129;49.662;8.448;2022-09-17T13:11:51;100403.47;;;21.74;75.51
37238;BME280;23129;49.662;8.448;2022-09-17T13:14:42;100401.16;;;22.05;72.84
37238;BME280;23129;49.662;8.448;2022-09-17T13:17:23;100400.03;;;22.43;72.46
37238;BME280;23129;49.662;8.448;2022-09-17T13:20:00;100394.19;;;22.49;68.34
37238;BME280;23129;49.662;8.448;2022-09-17T13:22:31;100391.53;;;22.49;67.87
37238;BME280;23129;49.662;8.448;2022-09-17T13:25:13;100384.50;;;22.59;65.99
37238;BME280;23129;49.662;8.448;2022-09-17T13:27:43;100384.97;;;22.64;65.55
37238;BME280;23129;49.662;8.448;2022-09-17T13:30:13;100385.69;;;22.77;65.19
37238;BME280;23129;49.662;8.448;2022-09-17T13:32:53;100385.94;;;22.97;64.36
37238;BME280;23129;49.662;8.448;2022-09-17T13:35:47;100385.09;;;22.96;65.48